sensor_id;sensor_type;location;lat;lon;timestamp;P1;durP1;ratioP1;P2;durP2;ratioP2
45676;SDS011;31390;51.186;6.830;2023-04-03T00:01:53;18.40;;;16.47;;
45676;SDS011;31390;51.186;6.830;2023-04-03T00:04:20;18.70;;;16.73;;
45676;SDS011;31390;51.186;6.830;2023-04-03T00:06:46;17.30;;;15.60;;
45676;SDS011;31390;51.186;6.830;2023-04-03T00:09:13;17.73;;;15.90;;
45676;SDS011;31390;51.186;6.830;2023-04-03T00:11:39;18.10;;;16.33;;
45676;SDS011;31390;51.186;6.830;2023-04-03T00:14:06;18.27;;;16.27;;
45676;SDS011;31390;51.186;6.830;2023-04-03T00:16:32;18.33;;;16.53;;
45676;SDS011;31390;51.186;6.830;2023-04-03T00:18:59;19.90;;;18.00;;
45676;SDS011;31390;51.186;6.830;2023-04-03T00:21:26;20.33;;;17.80;;
45676;SDS011;31390;51.186;6.830;2023-04-03T00:23:52;17.37;;;15.67;;
45676;SDS011;31390;51.186;6.830;2023-04-03T00:26:19;17.23;;;15.43;;
45676;SDS011;31390;51.186;6.830;2023-04-03T00:28:46;16.27;;;14.67;;
45676;SDS011;31390;51.186;6.830;2023-04-03T00:31:14;17.07;;;15.37;;
45676;SDS011;31390;51.186;6.830;2023-04-03T00:33:40;18.70;;;16.80;;
45676;SDS011;31390;51.186;6.830;2023-04-03T00:36:08;17.33;;;15.73;;
45676;SDS011;31390;51.186;6.830;2023-04-03T00:38:35;20.70;;;18.53;;
45676;SDS011;31390;51.186;6.830;2023-04-03T00:41:02;18.97;;;16.97;;
45676;SDS011;31390;51.186;6.830;2023-04-03T00:43:29;17.20;;;15.57;;
45676;SDS011;31390;51.186;6.830;2023-04-03T00:45:56;18.23;;;16.43;;
45676;SDS011;31390;51.186;6.830;2023-04-03T00:48:37;18.20;;;16.57;;
45676;SDS011;31390;51.186;6.830;2023-04-03T00:51:06;19.20;;;17.40;;
45676;SDS011;31390;51.186;6.830;2023-04-03T00:53:35;20.87;;;18.97;;
45676;SDS011;31390;51.186;6.830;2023-04-03T00:56:05;19.00;;;17.13;;
45676;SDS011;31390;51.186;6.830;2023-04-03T00:58:37;18.73;;;16.90;;
45676;SDS011;31390;51.186;6.830;2023-04-03T01:01:07;19.17;;;17.37;;
45676;SDS011;31390;51.186;6.830;2023-04-03T01:03:34;19.53;;;17.67;;
45676;SDS011;31390;51.186;6.830;2023-04-03T01:06:02;19.67;;;17.70;;
45676;SDS011;31390;51.186;6.830;2023-04-03T01:08:29;23.57;;;19.77;;
45676;SDS011;31390;51.186;6.830;2023-04-03T01:10:56;19.23;;;17.30;;
45676;SDS011;31390;51.186;6.830;2023-04-03T01:13:26;20.37;;;18.47;;
45676;SDS011;31390;51.186;6.830;2023-04-03T01:15:53;19.23;;;17.37;;
45676;SDS011;31390;51.186;6.830;2023-04-03T01:18:21;20.87;;;18.53;;
45676;SDS011;31390;51.186;6.830;2023-04-03T01:20:50;19.07;;;17.13;;
45676;SDS011;31390;51.186;6.830;2023-04-03T01:23:25;21.30;;;19.03;;
45676;SDS011;31390;51.186;6.830;2023-04-03T01:25:55;22.90;;;20.50;;
45676;SDS011;31390;51.186;6.830;2023-04-03T01:28:23;20.90;;;18.60;;
45676;SDS011;31390;51.186;6.830;2023-04-03T01:33:26;23.97;;;21.30;;
45676;SDS011;31390;51.186;6.830;2023-04-03T01:35:53;21.37;;;19.07;;
45676;SDS011;31390;51.186;6.830;2023-04-03T01:38:20;20.20;;;18.40;;
45676;SDS011;31390;51.186;6.830;2023-04-03T01:40:46;23.07;;;20.67;;
45676;SDS011;31390;51.186;6.830;2023-04-03T01:43:16;28.33;;;19.93;;
45676;SDS011;31390;51.186;6.830;2023-04-03T01:45:42;31.07;;;18.50;;
45676;SDS011;31390;51.186;6.830;2023-04-03T01:48:09;27.90;;;17.77;;
45676;SDS011;31390;51.186;6.830;2023-04-03T01:50:35;26.90;;;18.57;;
45676;SDS011;31390;51.186;6.830;2023-04-03T01:53:03;26.23;;;18.13;;
45676;SDS011;31390;51.186;6.830;2023-04-03T01:55:29;20.40;;;18.30;;
45676;SDS011;31390;51.186;6.830;2023-04-03T01:57:56;21.50;;;19.37;;
45676;SDS011;31390;51.186;6.830;2023-04-03T02:00:22;20.53;;;18.50;;
45676;SDS011;31390;51.186;6.830;2023-04-03T02:02:49;20.97;;;18.90;;
45676;SDS011;31390;51.186;6.830;2023-04-03T02:05:16;20.00;;;18.03;;
45676;SDS011;31390;51.186;6.830;2023-04-03T02:07:42;21.07;;;18.90;;
45676;SDS011;31390;51.186;6.830;2023-04-03T02:10:09;20.07;;;18.07;;
45676;SDS011;31390;51.186;6.830;2023-04-03T02:12:36;20.20;;;18.17;;
45676;SDS011;31390;51.186;6.830;2023-04-03T02:15:02;22.27;;;20.07;;
45676;SDS011;31390;51.186;6.830;2023-04-03T02:17:29;18.30;;;16.60;;
45676;SDS011;31390;51.186;6.830;2023-04-03T02:19:56;19.97;;;18.07;;
45676;SDS011;31390;51.186;6.830;2023-04-03T02:22:22;19.90;;;17.80;;
45676;SDS011;31390;51.186;6.830;2023-04-03T02:24:50;18.47;;;16.60;;
45676;SDS011;31390;51.186;6.830;2023-04-03T02:27:19;19.03;;;17.10;;
45676;SDS011;31390;51.186;6.830;2023-04-03T02:29:47;18.13;;;16.27;;
45676;SDS011;31390;51.186;6.830;2023-04-03T02:32:14;18.83;;;16.93;;
45676;SDS011;31390;51.186;6.830;2023-04-03T02:34:40;17.90;;;16.10;;
45676;SDS011;31390;51.186;6.830;2023-04-03T02:37:08;17.13;;;15.43;;
45676;SDS011;31390;51.186;6.830;2023-04-03T02:39:35;18.63;;;16.20;;
45676;SDS011;31390;51.186;6.830;2023-04-03T02:42:01;22.13;;;16.23;;
45676;SDS011;31390;51.186;6.830;2023-04-03T02:44:28;19.10;;;17.03;;
45676;SDS011;31390;51.186;6.830;2023-04-03T02:46:54;15.37;;;13.83;;
45676;SDS011;31390;51.186;6.830;2023-04-03T02:49:22;13.80;;;12.53;;
45676;SDS011;31390;51.186;6.830;2023-04-03T02:51:48;17.20;;;15.43;;
45676;SDS011;31390;51.186;6.830;2023-04-03T02:54:15;18.83;;;16.83;;
45676;SDS011;31390;51.186;6.830;2023-04-03T02:56:46;17.23;;;15.53;;
45676;SDS011;31390;51.186;6.830;2023-04-03T02:59:12;15.77;;;14.13;;
45676;SDS011;31390;51.186;6.830;2023-04-03T03:01:39;18.37;;;13.37;;
45676;SDS011;31390;51.186;6.830;2023-04-03T03:04:06;17.70;;;15.57;;
45676;SDS011;31390;51.186;6.830;2023-04-03T03:06:32;15.97;;;14.33;;
45676;SDS011;31390;51.186;6.830;2023-04-03T03:08:59;17.97;;;13.63;;
45676;SDS011;31390;51.186;6.830;2023-04-03T03:11:25;17.37;;;15.50;;
45676;SDS011;31390;51.186;6.830;2023-04-03T03:13:52;13.83;;;12.47;;
45676;SDS011;31390;51.186;6.830;2023-04-03T03:16:19;14.20;;;12.70;;
45676;SDS011;31390;51.186;6.830;2023-04-03T03:18:45;14.00;;;12.10;;
45676;SDS011;31390;51.186;6.830;2023-04-03T03:21:12;11.83;;;10.37;;
45676;SDS011;31390;51.186;6.830;2023-04-03T03:23:38;13.63;;;11.80;;
45676;SDS011;31390;51.186;6.830;2023-04-03T03:26:07;12.33;;;11.03;;
45676;SDS011;31390;51.186;6.830;2023-04-03T03:28:34;10.20;;;9.10;;
45676;SDS011;31390;51.186;6.830;2023-04-03T03:31:00;14.70;;;12.37;;
45676;SDS011;31390;51.186;6.830;2023-04-03T03:33:28;9.97;;;8.53;;
45676;SDS011;31390;51.186;6.830;2023-04-03T03:35:54;9.70;;;8.70;;
45676;SDS011;31390;51.186;6.830;2023-04-03T03:38:21;9.73;;;8.40;;
45676;SDS011;31390;51.186;6.830;2023-04-03T03:40:49;9.00;;;8.07;;
45676;SDS011;31390;51.186;6.830;2023-04-03T03:43:18;10.93;;;9.37;;
45676;SDS011;31390;51.186;6.830;2023-04-03T03:45:49;10.37;;;8.40;;
45676;SDS011;31390;51.186;6.830;2023-04-03T03:48:16;9.97;;;8.93;;
45676;SDS011;31390;51.186;6.830;2023-04-03T03:50:43;9.67;;;8.60;;
45676;SDS011;31390;51.186;6.830;2023-04-03T03:53:10;11.03;;;8.10;;
45676;SDS011;31390;51.186;6.830;2023-04-03T03:55:37;8.70;;;7.67;;
45676;SDS011;31390;51.186;6.830;2023-04-03T03:58:03;10.47;;;8.57;;
45676;SDS011;31390;51.186;6.830;2023-04-03T04:00:32;11.43;;;8.90;;
45676;SDS011;31390;51.186;6.830;2023-04-03T04:02:59;11.40;;;8.20;;
45676;SDS011;31390;51.186;6.830;2023-04-03T04:05:28;9.07;;;8.10;;
45676;SDS011;31390;51.186;6.830;2023-04-03T04:07:55;12.90;;;8.50;;
45676;SDS011;31390;51.186;6.830;2023-04-03T04:10:23;8.27;;;7.40;;
45676;SDS011;31390;51.186;6.830;2023-04-03T04:12:50;7.77;;;7.07;;
45676;SDS011;31390;51.186;6.830;2023-04-03T04:15:21;8.57;;;7.70;;
45676;SDS011;31390;51.186;6.830;2023-04-03T04:17:48;7.80;;;6.73;;
45676;SDS011;31390;51.186;6.830;2023-04-03T04:20:15;11.73;;;7.60;;
45676;SDS011;31390;51.186;6.830;2023-04-03T04:22:41;9.43;;;7.20;;
45676;SDS011;31390;51.186;6.830;2023-04-03T04:25:08;10.27;;;7.07;;
45676;SDS011;31390;51.186;6.830;2023-04-03T04:27:37;10.03;;;6.60;;
45676;SDS011;31390;51.186;6.830;2023-04-03T04:30:04;9.33;;;6.37;;
45676;SDS011;31390;51.186;6.830;2023-04-03T04:32:31;10.37;;;7.63;;
45676;SDS011;31390;51.186;6.830;2023-04-03T04:34:58;7.27;;;6.20;;
45676;SDS011;31390;51.186;6.830;2023-04-03T04:37:27;8.50;;;6.33;;
45676;SDS011;31390;51.186;6.830;2023-04-03T04:39:54;10.40;;;6.47;;
45676;SDS011;31390;51.186;6.830;2023-04-03T04:42:20;8.10;;;6.60;;
45676;SDS011;31390;51.186;6.830;2023-04-03T04:44:48;7.83;;;6.60;;
45676;SDS011;31390;51.186;6.830;2023-04-03T04:47:15;9.27;;;5.93;;
45676;SDS011;31390;51.186;6.830;2023-04-03T04:49:42;7.00;;;6.17;;
45676;SDS011;31390;51.186;6.830;2023-04-03T04:52:09;8.63;;;5.73;;
45676;SDS011;31390;51.186;6.830;2023-04-03T04:54:38;6.97;;;6.00;;
45676;SDS011;31390;51.186;6.830;2023-04-03T04:57:04;8.30;;;6.17;;
45676;SDS011;31390;51.186;6.830;2023-04-03T04:59:31;10.43;;;6.33;;
45676;SDS011;31390;51.186;6.830;2023-04-03T05:01:58;8.13;;;6.00;;
45676;SDS011;31390;51.186;6.830;2023-04-03T05:04:26;7.20;;;6.00;;
45676;SDS011;31390;51.186;6.830;2023-04-03T05:06:58;7.37;;;5.63;;
45676;SDS011;31390;51.186;6.830;2023-04-03T05:09:28;7.57;;;5.63;;
45676;SDS011;31390;51.186;6.830;2023-04-03T05:11:55;7.90;;;6.27;;
45676;SDS011;31390;51.186;6.830;2023-04-03T05:14:25;9.77;;;5.67;;
45676;SDS011;31390;51.186;6.830;2023-04-03T05:16:54;6.90;;;6.20;;
45676;SDS011;31390;51.186;6.830;2023-04-03T05:19:25;7.60;;;5.70;;
45676;SDS011;31390;51.186;6.830;2023-04-03T05:21:51;8.63;;;5.17;;
45676;SDS011;31390;51.186;6.830;2023-04-03T05:24:18;6.90;;;5.20;;
45676;SDS011;31390;51.186;6.830;2023-04-03T05:26:45;10.07;;;5.80;;
45676;SDS011;31390;51.186;6.830;2023-04-03T05:29:13;8.83;;;4.97;;
45676;SDS011;31390;51.186;6.830;2023-04-03T05:31:40;8.20;;;5.37;;
45676;SDS011;31390;51.186;6.830;2023-04-03T05:34:09;6.63;;;4.53;;
45676;SDS011;31390;51.186;6.830;2023-04-03T05:36:37;6.10;;;4.53;;
45676;SDS011;31390;51.186;6.830;2023-04-03T05:39:06;6.27;;;4.60;;
45676;SDS011;31390;51.186;6.830;2023-04-03T05:41:36;8.97;;;4.33;;
45676;SDS011;31390;51.186;6.830;2023-04-03T05:44:03;7.27;;;4.80;;
45676;SDS011;31390;51.186;6.830;2023-04-03T05:46:29;7.27;;;4.07;;
45676;SDS011;31390;51.186;6.830;2023-04-03T05:49:00;7.07;;;4.67;;
45676;SDS011;31390;51.186;6.830;2023-04-03T05:51:31;7.47;;;4.67;;
45676;SDS011;31390;51.186;6.830;2023-04-03T05:54:21;7.37;;;4.40;;
45676;SDS011;31390;51.186;6.830;2023-04-03T05:56:51;6.00;;;4.50;;
45676;SDS011;31390;51.186;6.830;2023-04-03T05:59:19;7.17;;;4.47;;
45676;SDS011;31390;51.186;6.830;2023-04-03T06:01:48;6.27;;;4.50;;
45676;SDS011;31390;51.186;6.830;2023-04-03T06:04:14;7.33;;;4.57;;
45676;SDS011;31390;51.186;6.830;2023-04-03T06:06:43;6.53;;;4.30;;
45676;SDS011;31390;51.186;6.830;2023-04-03T06:09:09;6.67;;;4.10;;
45676;SDS011;31390;51.186;6.830;2023-04-03T06:11:36;6.17;;;4.13;;
45676;SDS011;31390;51.186;6.830;2023-04-03T06:14:03;5.57;;;3.93;;
45676;SDS011;31390;51.186;6.830;2023-04-03T06:16:29;6.10;;;3.73;;
45676;SDS011;31390;51.186;6.830;2023-04-03T06:18:56;5.40;;;4.00;;
45676;SDS011;31390;51.186;6.830;2023-04-03T06:21:23;7.90;;;3.90;;
45676;SDS011;31390;51.186;6.830;2023-04-03T06:23:49;5.60;;;4.23;;
45676;SDS011;31390;51.186;6.830;2023-04-03T06:26:17;6.03;;;4.00;;
45676;SDS011;31390;51.186;6.830;2023-04-03T06:28:44;7.60;;;4.07;;
45676;SDS011;31390;51.186;6.830;2023-04-03T06:31:10;6.77;;;4.00;;
45676;SDS011;31390;51.186;6.830;2023-04-03T06:33:37;7.63;;;4.00;;
45676;SDS011;31390;51.186;6.830;2023-04-03T06:36:04;5.83;;;3.97;;
45676;SDS011;31390;51.186;6.830;2023-04-03T06:38:31;7.03;;;3.97;;
45676;SDS011;31390;51.186;6.830;2023-04-03T06:40:58;5.80;;;3.63;;
45676;SDS011;31390;51.186;6.830;2023-04-03T06:43:25;6.07;;;3.47;;
45676;SDS011;31390;51.186;6.830;2023-04-03T06:45:53;6.90;;;3.80;;
45676;SDS011;31390;51.186;6.830;2023-04-03T06:48:19;6.00;;;3.47;;
45676;SDS011;31390;51.186;6.830;2023-04-03T06:50:46;5.90;;;3.50;;
45676;SDS011;31390;51.186;6.830;2023-04-03T06:53:12;8.43;;;3.80;;
45676;SDS011;31390;51.186;6.830;2023-04-03T06:55:39;4.10;;;2.97;;
45676;SDS011;31390;51.186;6.830;2023-04-03T06:58:06;9.20;;;3.87;;
45676;SDS011;31390;51.186;6.830;2023-04-03T07:00:32;7.60;;;3.87;;
45676;SDS011;31390;51.186;6.830;2023-04-03T07:02:59;9.87;;;3.73;;
45676;SDS011;31390;51.186;6.830;2023-04-03T07:05:26;6.97;;;3.53;;
45676;SDS011;31390;51.186;6.830;2023-04-03T07:07:52;4.70;;;3.07;;
45676;SDS011;31390;51.186;6.830;2023-04-03T07:10:19;5.53;;;3.93;;
45676;SDS011;31390;51.186;6.830;2023-04-03T07:12:46;6.13;;;3.30;;
45676;SDS011;31390;51.186;6.830;2023-04-03T07:15:13;6.77;;;3.90;;
45676;SDS011;31390;51.186;6.830;2023-04-03T07:17:40;6.23;;;3.23;;
45676;SDS011;31390;51.186;6.830;2023-04-03T07:20:08;7.20;;;3.73;;
45676;SDS011;31390;51.186;6.830;2023-04-03T07:22:34;6.20;;;3.53;;
45676;SDS011;31390;51.186;6.830;2023-04-03T07:25:01;5.80;;;3.53;;
45676;SDS011;31390;51.186;6.830;2023-04-03T07:27:28;6.53;;;3.47;;
45676;SDS011;31390;51.186;6.830;2023-04-03T07:29:55;6.83;;;3.10;;
45676;SDS011;31390;51.186;6.830;2023-04-03T07:32:22;7.60;;;2.73;;
45676;SDS011;31390;51.186;6.830;2023-04-03T07:34:48;7.90;;;3.37;;
45676;SDS011;31390;51.186;6.830;2023-04-03T07:37:15;6.23;;;2.93;;
45676;SDS011;31390;51.186;6.830;2023-04-03T07:39:44;4.47;;;2.77;;
45676;SDS011;31390;51.186;6.830;2023-04-03T07:42:11;6.27;;;3.17;;
45676;SDS011;31390;51.186;6.830;2023-04-03T07:44:39;3.63;;;2.40;;
45676;SDS011;31390;51.186;6.830;2023-04-03T07:47:06;5.80;;;2.67;;
45676;SDS011;31390;51.186;6.830;2023-04-03T07:49:33;4.93;;;2.57;;
45676;SDS011;31390;51.186;6.830;2023-04-03T07:52:01;4.83;;;2.50;;
45676;SDS011;31390;51.186;6.830;2023-04-03T07:54:27;5.13;;;2.80;;
45676;SDS011;31390;51.186;6.830;2023-04-03T07:56:54;4.73;;;2.33;;
45676;SDS011;31390;51.186;6.830;2023-04-03T07:59:21;5.20;;;2.10;;
45676;SDS011;31390;51.186;6.830;2023-04-03T08:01:47;4.70;;;2.63;;
45676;SDS011;31390;51.186;6.830;2023-04-03T08:04:14;4.20;;;2.37;;
45676;SDS011;31390;51.186;6.830;2023-04-03T08:06:41;3.90;;;2.23;;
45676;SDS011;31390;51.186;6.830;2023-04-03T08:09:13;2.90;;;1.93;;
45676;SDS011;31390;51.186;6.830;2023-04-03T08:11:40;4.17;;;1.83;;
45676;SDS011;31390;51.186;6.830;2023-04-03T08:14:07;2.93;;;2.00;;
45676;SDS011;31390;51.186;6.830;2023-04-03T08:16:33;3.47;;;1.80;;
45676;SDS011;31390;51.186;6.830;2023-04-03T08:19:00;5.53;;;2.30;;
45676;SDS011;31390;51.186;6.830;2023-04-03T08:21:27;4.03;;;2.23;;
45676;SDS011;31390;51.186;6.830;2023-04-03T08:23:54;3.43;;;1.80;;
45676;SDS011;31390;51.186;6.830;2023-04-03T08:26:21;3.77;;;1.90;;
45676;SDS011;31390;51.186;6.830;2023-04-03T08:28:48;2.93;;;2.00;;
45676;SDS011;31390;51.186;6.830;2023-04-03T08:31:15;4.23;;;1.80;;
45676;SDS011;31390;51.186;6.830;2023-04-03T08:33:43;3.17;;;1.70;;
45676;SDS011;31390;51.186;6.830;2023-04-03T08:36:20;1.50;;;1.30;;
45676;SDS011;31390;51.186;6.830;2023-04-03T08:38:48;3.50;;;1.50;;
45676;SDS011;31390;51.186;6.830;2023-04-03T08:41:26;2.13;;;1.57;;
45676;SDS011;31390;51.186;6.830;2023-04-03T08:46:26;3.77;;;1.63;;
45676;SDS011;31390;51.186;6.830;2023-04-03T08:48:58;3.83;;;1.30;;
45676;SDS011;31390;51.186;6.830;2023-04-03T08:51:26;3.60;;;1.70;;
45676;SDS011;31390;51.186;6.830;2023-04-03T08:53:55;3.67;;;1.70;;
45676;SDS011;31390;51.186;6.830;2023-04-03T08:56:23;4.57;;;1.77;;
45676;SDS011;31390;51.186;6.830;2023-04-03T08:58:52;3.87;;;1.30;;
45676;SDS011;31390;51.186;6.830;2023-04-03T09:01:38;5.57;;;1.70;;
45676;SDS011;31390;51.186;6.830;2023-04-03T09:04:10;3.33;;;1.33;;
45676;SDS011;31390;51.186;6.830;2023-04-03T09:06:38;2.30;;;1.70;;
45676;SDS011;31390;51.186;6.830;2023-04-03T09:14:13;4.50;;;1.97;;
45676;SDS011;31390;51.186;6.830;2023-04-03T09:21:58;3.40;;;1.47;;
45676;SDS011;31390;51.186;6.830;2023-04-03T09:24:26;3.40;;;1.70;;
45676;SDS011;31390;51.186;6.830;2023-04-03T09:26:56;3.73;;;1.70;;
45676;SDS011;31390;51.186;6.830;2023-04-03T09:29:26;4.10;;;1.70;;
45676;SDS011;31390;51.186;6.830;2023-04-03T09:31:55;2.03;;;1.53;;
45676;SDS011;31390;51.186;6.830;2023-04-03T09:34:23;5.37;;;1.50;;
45676;SDS011;31390;51.186;6.830;2023-04-03T09:36:51;2.57;;;1.60;;
45676;SDS011;31390;51.186;6.830;2023-04-03T09:39:19;4.30;;;1.70;;
45676;SDS011;31390;51.186;6.830;2023-04-03T09:44:23;3.43;;;1.50;;
45676;SDS011;31390;51.186;6.830;2023-04-03T09:46:50;3.17;;;1.70;;
45676;SDS011;31390;51.186;6.830;2023-04-03T09:49:17;5.83;;;2.30;;
45676;SDS011;31390;51.186;6.830;2023-04-03T09:51:44;2.83;;;1.23;;
45676;SDS011;31390;51.186;6.830;2023-04-03T09:54:33;1.93;;;1.50;;
45676;SDS011;31390;51.186;6.830;2023-04-03T09:57:03;3.33;;;1.37;;
45676;SDS011;31390;51.186;6.830;2023-04-03T09:59:32;4.83;;;1.90;;
45676;SDS011;31390;51.186;6.830;2023-04-03T10:02:00;3.10;;;1.40;;
45676;SDS011;31390;51.186;6.830;2023-04-03T10:04:37;2.80;;;1.40;;
45676;SDS011;31390;51.186;6.830;2023-04-03T10:07:03;3.83;;;1.47;;
45676;SDS011;31390;51.186;6.830;2023-04-03T10:09:59;3.77;;;1.43;;
45676;SDS011;31390;51.186;6.830;2023-04-03T10:12:28;3.70;;;1.40;;
45676;SDS011;31390;51.186;6.830;2023-04-03T10:14:56;1.83;;;1.23;;
45676;SDS011;31390;51.186;6.830;2023-04-03T10:27:36;2.65;;;1.33;;
45676;SDS011;31390;51.186;6.830;2023-04-03T10:35:16;1.60;;;1.00;;
45676;SDS011;31390;51.186;6.830;2023-04-03T10:42:49;7.57;;;1.33;;
45676;SDS011;31390;51.186;6.830;2023-04-03T10:48:16;2.80;;;1.00;;
45676;SDS011;31390;51.186;6.830;2023-04-03T10:53:25;3.53;;;1.00;;
45676;SDS011;31390;51.186;6.830;2023-04-03T10:58:26;3.78;;;1.00;;
45676;SDS011;31390;51.186;6.830;2023-04-03T11:00:56;1.77;;;0.90;;
45676;SDS011;31390;51.186;6.830;2023-04-03T11:03:29;1.98;;;1.02;;
45676;SDS011;31390;51.186;6.830;2023-04-03T11:05:57;1.75;;;1.17;;
45676;SDS011;31390;51.186;6.830;2023-04-03T11:10:58;3.13;;;1.02;;
45676;SDS011;31390;51.186;6.830;2023-04-03T11:15:56;2.97;;;1.40;;
45676;SDS011;31390;51.186;6.830;2023-04-03T11:18:38;2.42;;;1.17;;
45676;SDS011;31390;51.186;6.830;2023-04-03T11:23:53;2.72;;;1.15;;
45676;SDS011;31390;51.186;6.830;2023-04-03T11:26:22;2.80;;;1.20;;
45676;SDS011;31390;51.186;6.830;2023-04-03T11:28:52;1.10;;;0.82;;
45676;SDS011;31390;51.186;6.830;2023-04-03T11:33:58;2.00;;;1.13;;
45676;SDS011;31390;51.186;6.830;2023-04-03T11:36:32;1.42;;;1.02;;
45676;SDS011;31390;51.186;6.830;2023-04-03T11:41:45;1.95;;;1.00;;
45676;SDS011;31390;51.186;6.830;2023-04-03T11:46:58;1.52;;;0.90;;
45676;SDS011;31390;51.186;6.830;2023-04-03T11:52:10;1.42;;;0.90;;
45676;SDS011;31390;51.186;6.830;2023-04-03T11:57:42;2.47;;;1.00;;
45676;SDS011;31390;51.186;6.830;2023-04-03T12:01:10;3.05;;;1.00;;
45676;SDS011;31390;51.186;6.830;2023-04-03T12:03:22;2.20;;;1.00;;
45676;SDS011;31390;51.186;6.830;2023-04-03T12:08:26;2.65;;;0.85;;
45676;SDS011;31390;51.186;6.830;2023-04-03T12:16:20;1.73;;;0.73;;
45676;SDS011;31390;51.186;6.830;2023-04-03T12:21:22;2.65;;;0.90;;
45676;SDS011;31390;51.186;6.830;2023-04-03T12:26:26;1.17;;;0.73;;
45676;SDS011;31390;51.186;6.830;2023-04-03T12:29:10;1.58;;;0.80;;
45676;SDS011;31390;51.186;6.830;2023-04-03T12:31:42;0.75;;;0.73;;
45676;SDS011;31390;51.186;6.830;2023-04-03T12:34:24;1.30;;;0.80;;
45676;SDS011;31390;51.186;6.830;2023-04-03T12:37:17;1.95;;;0.90;;
45676;SDS011;31390;51.186;6.830;2023-04-03T12:44:57;1.40;;;1.00;;
45676;SDS011;31390;51.186;6.830;2023-04-03T12:47:35;1.30;;;0.95;;
45676;SDS011;31390;51.186;6.830;2023-04-03T12:50:04;3.55;;;1.20;;
45676;SDS011;31390;51.186;6.830;2023-04-03T12:52:44;2.58;;;1.05;;
45676;SDS011;31390;51.186;6.830;2023-04-03T12:55:18;2.55;;;0.93;;
45676;SDS011;31390;51.186;6.830;2023-04-03T12:57:46;2.33;;;1.40;;
45676;SDS011;31390;51.186;6.830;2023-04-03T13:03:06;1.77;;;1.15;;
45676;SDS011;31390;51.186;6.830;2023-04-03T13:05:45;3.22;;;1.15;;
45676;SDS011;31390;51.186;6.830;2023-04-03T13:08:22;3.03;;;1.27;;
45676;SDS011;31390;51.186;6.830;2023-04-03T13:10:55;3.33;;;1.05;;
45676;SDS011;31390;51.186;6.830;2023-04-03T13:13:23;1.50;;;1.05;;
45676;SDS011;31390;51.186;6.830;2023-04-03T13:15:50;2.05;;;1.05;;
45676;SDS011;31390;51.186;6.830;2023-04-03T13:18:36;2.05;;;1.10;;
45676;SDS011;31390;51.186;6.830;2023-04-03T13:21:07;1.38;;;1.05;;
45676;SDS011;31390;51.186;6.830;2023-04-03T13:23:35;2.13;;;1.20;;
45676;SDS011;31390;51.186;6.830;2023-04-03T13:26:03;2.53;;;1.20;;
45676;SDS011;31390;51.186;6.830;2023-04-03T13:28:30;3.10;;;1.25;;
45676;SDS011;31390;51.186;6.830;2023-04-03T13:33:32;2.03;;;1.23;;
45676;SDS011;31390;51.186;6.830;2023-04-03T13:36:03;2.38;;;1.20;;
45676;SDS011;31390;51.186;6.830;2023-04-03T13:38:31;2.47;;;1.15;;
45676;SDS011;31390;51.186;6.830;2023-04-03T13:41:02;3.72;;;1.15;;
45676;SDS011;31390;51.186;6.830;2023-04-03T13:43:30;1.52;;;1.20;;
45676;SDS011;31390;51.186;6.830;2023-04-03T13:48:24;3.88;;;1.55;;
45676;SDS011;31390;51.186;6.830;2023-04-03T13:50:53;2.63;;;1.35;;
45676;SDS011;31390;51.186;6.830;2023-04-03T13:53:19;2.33;;;1.30;;
45676;SDS011;31390;51.186;6.830;2023-04-03T13:58:32;2.13;;;1.20;;
45676;SDS011;31390;51.186;6.830;2023-04-03T14:01:18;3.35;;;1.40;;
45676;SDS011;31390;51.186;6.830;2023-04-03T14:03:54;2.08;;;1.30;;
45676;SDS011;31390;51.186;6.830;2023-04-03T14:06:22;2.40;;;1.27;;
45676;SDS011;31390;51.186;6.830;2023-04-03T14:08:48;2.35;;;1.25;;
45676;SDS011;31390;51.186;6.830;2023-04-03T14:11:26;1.25;;;1.15;;
45676;SDS011;31390;51.186;6.830;2023-04-03T14:13:55;3.88;;;1.20;;
45676;SDS011;31390;51.186;6.830;2023-04-03T14:16:25;2.47;;;1.50;;
45676;SDS011;31390;51.186;6.830;2023-04-03T14:18:53;2.63;;;1.33;;
45676;SDS011;31390;51.186;6.830;2023-04-03T14:21:21;5.05;;;1.33;;
45676;SDS011;31390;51.186;6.830;2023-04-03T14:23:48;2.63;;;1.17;;
45676;SDS011;31390;51.186;6.830;2023-04-03T14:26:19;3.45;;;1.48;;
45676;SDS011;31390;51.186;6.830;2023-04-03T14:28:47;2.80;;;1.42;;
45676;SDS011;31390;51.186;6.830;2023-04-03T14:31:14;3.03;;;1.23;;
45676;SDS011;31390;51.186;6.830;2023-04-03T14:33:42;2.70;;;1.35;;
45676;SDS011;31390;51.186;6.830;2023-04-03T14:36:13;1.77;;;1.00;;
45676;SDS011;31390;51.186;6.830;2023-04-03T14:38:40;2.40;;;1.13;;
45676;SDS011;31390;51.186;6.830;2023-04-03T14:41:07;4.78;;;1.30;;
45676;SDS011;31390;51.186;6.830;2023-04-03T14:43:43;4.05;;;1.38;;
45676;SDS011;31390;51.186;6.830;2023-04-03T14:46:13;2.15;;;1.20;;
45676;SDS011;31390;51.186;6.830;2023-04-03T14:48:41;2.42;;;1.33;;
45676;SDS011;31390;51.186;6.830;2023-04-03T14:51:09;3.47;;;1.45;;
45676;SDS011;31390;51.186;6.830;2023-04-03T14:53:36;1.67;;;0.98;;
45676;SDS011;31390;51.186;6.830;2023-04-03T14:56:09;1.65;;;1.00;;
45676;SDS011;31390;51.186;6.830;2023-04-03T14:58:36;3.30;;;1.10;;
45676;SDS011;31390;51.186;6.830;2023-04-03T15:01:03;3.03;;;1.20;;
45676;SDS011;31390;51.186;6.830;2023-04-03T15:03:30;1.70;;;1.08;;
45676;SDS011;31390;51.186;6.830;2023-04-03T15:05:56;2.78;;;1.33;;
45676;SDS011;31390;51.186;6.830;2023-04-03T15:08:25;3.17;;;1.45;;
45676;SDS011;31390;51.186;6.830;2023-04-03T15:10:52;3.33;;;1.20;;
45676;SDS011;31390;51.186;6.830;2023-04-03T15:13:19;3.00;;;1.33;;
45676;SDS011;31390;51.186;6.830;2023-04-03T15:15:46;3.40;;;1.30;;
45676;SDS011;31390;51.186;6.830;2023-04-03T15:18:15;3.42;;;1.60;;
45676;SDS011;31390;51.186;6.830;2023-04-03T15:20:43;4.00;;;1.40;;
45676;SDS011;31390;51.186;6.830;2023-04-03T15:23:11;1.88;;;1.17;;
45676;SDS011;31390;51.186;6.830;2023-04-03T15:25:37;3.08;;;1.30;;
45676;SDS011;31390;51.186;6.830;2023-04-03T15:28:05;1.83;;;1.20;;
45676;SDS011;31390;51.186;6.830;2023-04-03T15:30:32;2.70;;;1.20;;
45676;SDS011;31390;51.186;6.830;2023-04-03T15:33:01;2.22;;;1.40;;
45676;SDS011;31390;51.186;6.830;2023-04-03T15:35:27;4.18;;;1.70;;
45676;SDS011;31390;51.186;6.830;2023-04-03T15:37:54;2.90;;;1.42;;
45676;SDS011;31390;51.186;6.830;2023-04-03T15:40:21;4.85;;;1.50;;
45676;SDS011;31390;51.186;6.830;2023-04-03T15:42:47;2.30;;;1.38;;
45676;SDS011;31390;51.186;6.830;2023-04-03T15:45:14;2.90;;;1.35;;
45676;SDS011;31390;51.186;6.830;2023-04-03T15:47:41;3.70;;;1.50;;
45676;SDS011;31390;51.186;6.830;2023-04-03T15:50:08;2.15;;;1.25;;
45676;SDS011;31390;51.186;6.830;2023-04-03T15:52:35;2.15;;;1.27;;
45676;SDS011;31390;51.186;6.830;2023-04-03T15:55:03;3.20;;;1.48;;
45676;SDS011;31390;51.186;6.830;2023-04-03T15:57:29;2.50;;;1.17;;
45676;SDS011;31390;51.186;6.830;2023-04-03T15:59:56;1.65;;;1.20;;
45676;SDS011;31390;51.186;6.830;2023-04-03T16:02:22;3.42;;;1.40;;
45676;SDS011;31390;51.186;6.830;2023-04-03T16:04:49;2.47;;;1.40;;
45676;SDS011;31390;51.186;6.830;2023-04-03T16:07:16;2.47;;;1.48;;
45676;SDS011;31390;51.186;6.830;2023-04-03T16:09:42;3.45;;;1.83;;
45676;SDS011;31390;51.186;6.830;2023-04-03T16:12:09;3.75;;;1.20;;
45676;SDS011;31390;51.186;6.830;2023-04-03T16:14:36;2.72;;;0.98;;
45676;SDS011;31390;51.186;6.830;2023-04-03T16:17:02;2.20;;;1.20;;
45676;SDS011;31390;51.186;6.830;2023-04-03T16:19:29;3.80;;;1.27;;
45676;SDS011;31390;51.186;6.830;2023-04-03T16:21:57;5.28;;;1.48;;
45676;SDS011;31390;51.186;6.830;2023-04-03T16:24:23;4.03;;;1.48;;
45676;SDS011;31390;51.186;6.830;2023-04-03T16:26:50;3.20;;;1.23;;